sensor_id;sensor_type;location;lat;lon;timestamp;pressure;altitude;pressure_sealevel;temperature;humidity
28354;BME280;15603;50.878;8.036;2023-04-02T00:00:22;145322.78;;;8.71;100.00
28354;BME280;15603;50.878;8.036;2023-04-02T00:05:27;145305.78;;;8.64;100.00
28354;BME280;15603;50.878;8.036;2023-04-02T00:07:58;145340.97;;;8.79;100.00
28354;BME280;15603;50.878;8.036;2023-04-02T00:11:06;145298.50;;;8.61;100.00
28354;BME280;15603;50.878;8.036;2023-04-02T00:13:35;145327.63;;;8.73;100.00
28354;BME280;15603;50.878;8.036;2023-04-02T00:16:05;145275.44;;;8.51;100.00
28354;BME280;15603;50.878;8.036;2023-04-02T00:18:37;145309.41;;;8.65;100.00
28354;BME280;15603;50.878;8.036;2023-04-02T00:23:38;145305.78;;;8.64;100.00
28354;BME280;15603;50.878;8.036;2023-04-02T00:26:20;145317.91;;;8.69;100.00
28354;BME280;15603;50.878;8.036;2023-04-02T00:28:48;145308.22;;;8.65;100.00
28354;BME280;15603;50.878;8.036;2023-04-02T00:31:17;145307.00;;;8.64;100.00
28354;BME280;15603;50.878;8.036;2023-04-02T00:33:47;145327.63;;;8.73;100.00
28354;BME280;15603;50.878;8.036;2023-04-02T00:36:14;145282.72;;;8.54;100.00
28354;BME280;15603;50.878;8.036;2023-04-02T00:38:45;145287.56;;;8.56;100.00
28354;BME280;15603;50.878;8.036;2023-04-02T00:41:23;145280.31;;;8.53;100.00
28354;BME280;15603;50.878;8.036;2023-04-02T00:43:50;145283.97;;;8.55;100.00
28354;BME280;15603;50.878;8.036;2023-04-02T00:46:21;145321.56;;;8.71;100.00
28354;BME280;15603;50.878;8.036;2023-04-02T00:48:55;145274.25;;;8.51;100.00
28354;BME280;15603;50.878;8.036;2023-04-02T00:51:45;145283.97;;;8.55;100.00
28354;BME280;15603;50.878;8.036;2023-04-02T00:54:18;145300.91;;;8.62;100.00
28354;BME280;15603;50.878;8.036;2023-04-02T00:56:51;145239.00;;;8.36;100.00
28354;BME280;15603;50.878;8.036;2023-04-02T00:59:34;145316.72;;;8.69;100.00
28354;BME280;15603;50.878;8.036;2023-04-02T01:05:00;145305.78;;;8.64;100.00
28354;BME280;15603;50.878;8.036;2023-04-02T01:07:46;145328.88;;;8.74;100.00
28354;BME280;15603;50.878;8.036;2023-04-02T01:13:45;145298.50;;;8.61;100.00
28354;BME280;15603;50.878;8.036;2023-04-02T01:18:58;145316.72;;;8.69;100.00
28354;BME280;15603;50.878;8.036;2023-04-02T01:24:20;145297.31;;;8.60;100.00
28354;BME280;15603;50.878;8.036;2023-04-02T01:26:58;145276.66;;;8.52;100.00
28354;BME280;15603;50.878;8.036;2023-04-02T01:29:33;145308.22;;;8.65;100.00
28354;BME280;15603;50.878;8.036;2023-04-02T01:32:08;145269.34;;;8.49;100.00
28354;BME280;15603;50.878;8.036;2023-04-02T01:34:37;145304.56;;;8.63;100.00
28354;BME280;15603;50.878;8.036;2023-04-02T01:42:51;145315.50;;;8.68;100.00
28354;BME280;15603;50.878;8.036;2023-04-02T01:45:23;145314.25;;;8.68;100.00
28354;BME280;15603;50.878;8.036;2023-04-02T01:47:51;145271.81;;;8.50;100.00
28354;BME280;15603;50.878;8.036;2023-04-02T01:52:47;145300.91;;;8.62;100.00
28354;BME280;15603;50.878;8.036;2023-04-02T01:55:22;145222.00;;;8.29;100.00
28354;BME280;15603;50.878;8.036;2023-04-02T01:57:52;145315.50;;;8.68;100.00
28354;BME280;15603;50.878;8.036;2023-04-02T02:00:20;145319.13;;;8.70;100.00
28354;BME280;15603;50.878;8.036;2023-04-02T02:02:52;145319.13;;;8.70;100.00
28354;BME280;15603;50.878;8.036;2023-04-02T02:05:22;145259.66;;;8.44;100.00
28354;BME280;15603;50.878;8.036;2023-04-02T02:07:51;145317.91;;;8.69;100.00
28354;BME280;15603;50.878;8.036;2023-04-02T02:10:25;145317.91;;;8.69;100.00
28354;BME280;15603;50.878;8.036;2023-04-02T02:12:53;145302.16;;;8.62;100.00
28354;BME280;15603;50.878;8.036;2023-04-02T02:15:22;145305.78;;;8.64;100.00
28354;BME280;15603;50.878;8.036;2023-04-02T02:17:54;145305.78;;;8.64;100.00
28354;BME280;15603;50.878;8.036;2023-04-02T02:20:25;145313.06;;;8.67;100.00
28354;BME280;15603;50.878;8.036;2023-04-02T02:22:55;145330.06;;;8.74;100.00
28354;BME280;15603;50.878;8.036;2023-04-02T02:25:33;145320.38;;;8.70;100.00
28354;BME280;15603;50.878;8.036;2023-04-02T02:28:12;145276.66;;;8.52;100.00
28354;BME280;15603;50.878;8.036;2023-04-02T02:30:49;145313.06;;;8.67;100.00
28354;BME280;15603;50.878;8.036;2023-04-02T02:33:22;145325.22;;;8.72;100.00
28354;BME280;15603;50.878;8.036;2023-04-02T02:36:01;145277.84;;;8.52;100.00
28354;BME280;15603;50.878;8.036;2023-04-02T02:41:25;145307.00;;;8.64;100.00
28354;BME280;15603;50.878;8.036;2023-04-02T02:44:35;145303.38;;;8.63;100.00
28354;BME280;15603;50.878;8.036;2023-04-02T02:47:16;145283.97;;;8.55;100.00
28354;BME280;15603;50.878;8.036;2023-04-02T02:49:48;145180.75;;;8.11;100.00
28354;BME280;15603;50.878;8.036;2023-04-02T02:52:21;145242.66;;;8.37;100.00
28354;BME280;15603;50.878;8.036;2023-04-02T02:55:05;145232.91;;;8.33;100.00
28354;BME280;15603;50.878;8.036;2023-04-02T02:57:51;145257.25;;;8.43;100.00
28354;BME280;15603;50.878;8.036;2023-04-02T03:00:21;145155.25;;;8.00;100.00
28354;BME280;15603;50.878;8.036;2023-04-02T03:02:53;145235.34;;;8.34;100.00
28354;BME280;15603;50.878;8.036;2023-04-02T03:05:27;145215.94;;;8.26;100.00
28354;BME280;15603;50.878;8.036;2023-04-02T03:08:02;145207.44;;;8.22;100.00
28354;BME280;15603;50.878;8.036;2023-04-02T03:11:02;145168.59;;;8.06;100.00
28354;BME280;15603;50.878;8.036;2023-04-02T03:13:34;145118.84;;;7.85;100.00
28354;BME280;15603;50.878;8.036;2023-04-02T03:16:11;145152.84;;;7.99;100.00
28354;BME280;15603;50.878;8.036;2023-04-02T03:21:30;145104.31;;;7.79;100.00
28354;BME280;15603;50.878;8.036;2023-04-02T03:24:40;145148.00;;;7.97;100.00
28354;BME280;15603;50.878;8.036;2023-04-02T03:27:10;145103.09;;;7.78;100.00
28354;BME280;15603;50.878;8.036;2023-04-02T03:29:42;145067.91;;;7.63;100.00
28354;BME280;15603;50.878;8.036;2023-04-02T03:32:22;145118.84;;;7.85;100.00
28354;BME280;15603;50.878;8.036;2023-04-02T03:34:57;145105.50;;;7.79;100.00
28354;BME280;15603;50.878;8.036;2023-04-02T03:37:54;145109.16;;;7.81;100.00
28354;BME280;15603;50.878;8.036;2023-04-02T03:40:26;145082.47;;;7.70;100.00
28354;BME280;15603;50.878;8.036;2023-04-02T03:43:29;145075.22;;;7.66;100.00
28354;BME280;15603;50.878;8.036;2023-04-02T03:46:31;145063.06;;;7.61;100.00
28354;BME280;15603;50.878;8.036;2023-04-02T03:49:05;145020.63;;;7.43;100.00
28354;BME280;15603;50.878;8.036;2023-04-02T03:51:42;144995.16;;;7.33;100.00
28354;BME280;15603;50.878;8.036;2023-04-02T03:54:14;145029.13;;;7.47;100.00
28354;BME280;15603;50.878;8.036;2023-04-02T03:56:44;144993.94;;;7.32;100.00
28354;BME280;15603;50.878;8.036;2023-04-02T03:59:31;145060.66;;;7.60;100.00
28354;BME280;15603;50.878;8.036;2023-04-02T04:02:12;145010.94;;;7.39;100.00
28354;BME280;15603;50.878;8.036;2023-04-02T04:04:44;145043.69;;;7.53;100.00
28354;BME280;15603;50.878;8.036;2023-04-02T04:07:26;145035.19;;;7.50;100.00
28354;BME280;15603;50.878;8.036;2023-04-02T04:09:55;145021.84;;;7.44;100.00
28354;BME280;15603;50.878;8.036;2023-04-02T04:12:33;144981.81;;;7.27;100.00
28354;BME280;15603;50.878;8.036;2023-04-02T04:15:08;145000.00;;;7.35;100.00
28354;BME280;15603;50.878;8.036;2023-04-02T04:18:46;144962.44;;;7.19;100.00
28354;BME280;15603;50.878;8.036;2023-04-02T04:20:57;144961.22;;;7.18;100.00
28354;BME280;15603;50.878;8.036;2023-04-02T04:23:38;144985.47;;;7.28;100.00
28354;BME280;15603;50.878;8.036;2023-04-02T04:26:40;145014.53;;;7.41;100.00
28354;BME280;15603;50.878;8.036;2023-04-02T04:32:09;144918.75;;;7.00;100.00
28354;BME280;15603;50.878;8.036;2023-04-02T04:34:42;144975.75;;;7.24;100.00
28354;BME280;15603;50.878;8.036;2023-04-02T04:37:22;144975.75;;;7.24;100.00
28354;BME280;15603;50.878;8.036;2023-04-02T04:39:56;144915.16;;;6.99;100.00
28354;BME280;15603;50.878;8.036;2023-04-02T04:42:32;144917.56;;;7.00;100.00
28354;BME280;15603;50.878;8.036;2023-04-02T04:47:39;144916.34;;;6.99;100.00
28354;BME280;15603;50.878;8.036;2023-04-02T04:50:39;144935.75;;;7.07;100.00
28354;BME280;15603;50.878;8.036;2023-04-02T04:53:25;144880.00;;;6.84;100.00
28354;BME280;15603;50.878;8.036;2023-04-02T04:55:56;144895.72;;;6.91;100.00
28354;BME280;15603;50.878;8.036;2023-04-02T04:58:48;144904.22;;;6.94;100.00
28354;BME280;15603;50.878;8.036;2023-04-02T05:01:37;144905.41;;;6.95;100.00
28354;BME280;15603;50.878;8.036;2023-04-02T05:10:00;144905.41;;;6.95;100.00
28354;BME280;15603;50.878;8.036;2023-04-02T05:12:44;144867.84;;;6.79;100.00
28354;BME280;15603;50.878;8.036;2023-04-02T05:15:19;144892.13;;;6.89;100.00
28354;BME280;15603;50.878;8.036;2023-04-02T05:20:47;144872.69;;;6.81;100.00
28354;BME280;15603;50.878;8.036;2023-04-02T05:23:20;144842.41;;;6.68;100.00
28354;BME280;15603;50.878;8.036;2023-04-02T05:26:02;144876.34;;;6.82;100.00
28354;BME280;15603;50.878;8.036;2023-04-02T05:28:41;144860.59;;;6.76;100.00
28354;BME280;15603;50.878;8.036;2023-04-02T05:31:15;144842.41;;;6.68;100.00
28354;BME280;15603;50.878;8.036;2023-04-02T05:33:48;144854.50;;;6.73;100.00
28354;BME280;15603;50.878;8.036;2023-04-02T05:36:27;144798.78;;;6.49;100.00
28354;BME280;15603;50.878;8.036;2023-04-02T05:38:58;144833.94;;;6.64;100.00
28354;BME280;15603;50.878;8.036;2023-04-02T05:41:45;144827.84;;;6.62;100.00
28354;BME280;15603;50.878;8.036;2023-04-02T05:44:30;144801.22;;;6.51;100.00
28354;BME280;15603;50.878;8.036;2023-04-02T05:47:03;144808.47;;;6.54;100.00
28354;BME280;15603;50.878;8.036;2023-04-02T05:50:27;144806.06;;;6.53;100.00
28354;BME280;15603;50.878;8.036;2023-04-02T05:52:31;144793.94;;;6.47;100.00
28354;BME280;15603;50.878;8.036;2023-04-02T05:55:18;144830.28;;;6.63;100.00
28354;BME280;15603;50.878;8.036;2023-04-02T05:57:54;144823.00;;;6.60;100.00
28354;BME280;15603;50.878;8.036;2023-04-02T06:00:50;144797.56;;;6.49;100.00
28354;BME280;15603;50.878;8.036;2023-04-02T06:03:34;144829.09;;;6.62;100.00
28354;BME280;15603;50.878;8.036;2023-04-02T06:06:13;144791.47;;;6.46;100.00
28354;BME280;15603;50.878;8.036;2023-04-02T06:08:48;144801.22;;;6.51;100.00
28354;BME280;15603;50.878;8.036;2023-04-02T06:11:22;144837.56;;;6.66;100.00
28354;BME280;15603;50.878;8.036;2023-04-02T06:18:29;144614.56;;;5.71;100.00
28354;BME280;15603;50.878;8.036;2023-04-02T06:20:58;144636.38;;;5.81;100.00
28354;BME280;15603;50.878;8.036;2023-04-02T06:23:54;144750.28;;;6.29;100.00
28354;BME280;15603;50.878;8.036;2023-04-02T06:26:31;144706.69;;;6.11;100.00
28354;BME280;15603;50.878;8.036;2023-04-02T06:31:56;144796.31;;;6.48;100.00
28354;BME280;15603;50.878;8.036;2023-04-02T06:34:29;144821.81;;;6.59;100.00
28354;BME280;15603;50.878;8.036;2023-04-02T06:37:03;144700.59;;;6.08;100.00
28354;BME280;15603;50.878;8.036;2023-04-02T06:39:36;144704.25;;;6.09;100.00
28354;BME280;15603;50.878;8.036;2023-04-02T06:42:11;144808.47;;;6.54;100.00
28354;BME280;15603;50.878;8.036;2023-04-02T06:45:23;144793.94;;;6.47;100.00
28354;BME280;15603;50.878;8.036;2023-04-02T06:48:16;144764.88;;;6.35;100.00
28354;BME280;15603;50.878;8.036;2023-04-02T06:51:18;144716.38;;;6.15;100.00
28354;BME280;15603;50.878;8.036;2023-04-02T06:53:48;144706.69;;;6.11;100.00
28354;BME280;15603;50.878;8.036;2023-04-02T06:56:49;144837.56;;;6.66;100.00
28354;BME280;15603;50.878;8.036;2023-04-02T06:59:26;144793.94;;;6.47;100.00
28354;BME280;15603;50.878;8.036;2023-04-02T07:01:59;144795.13;;;6.48;100.00
28354;BME280;15603;50.878;8.036;2023-04-02T07:04:30;144835.13;;;6.65;100.00
28354;BME280;15603;50.878;8.036;2023-04-02T07:06:57;144713.94;;;6.14;100.00
28354;BME280;15603;50.878;8.036;2023-04-02T07:09:30;144866.66;;;6.78;100.00
28354;BME280;15603;50.878;8.036;2023-04-02T07:12:01;144830.28;;;6.63;100.00
28354;BME280;15603;50.878;8.036;2023-04-02T07:14:28;144775.75;;;6.40;100.00
28354;BME280;15603;50.878;8.036;2023-04-02T07:16:59;144604.88;;;5.67;100.00
28354;BME280;15603;50.878;8.036;2023-04-02T07:19:27;144644.84;;;5.84;100.00
28354;BME280;15603;50.878;8.036;2023-04-02T07:21:57;144816.97;;;6.57;100.00
28354;BME280;15603;50.878;8.036;2023-04-02T07:24:29;144801.22;;;6.51;100.00
28354;BME280;15603;50.878;8.036;2023-04-02T07:26:56;144816.97;;;6.57;100.00
28354;BME280;15603;50.878;8.036;2023-04-02T07:29:23;144624.28;;;5.76;100.00
28354;BME280;15603;50.878;8.036;2023-04-02T07:31:50;144747.88;;;6.28;100.00
28354;BME280;15603;50.878;8.036;2023-04-02T07:34:19;144735.75;;;6.23;100.00
28354;BME280;15603;50.878;8.036;2023-04-02T07:36:46;144745.44;;;6.27;100.00
28354;BME280;15603;50.878;8.036;2023-04-02T07:39:16;144676.41;;;5.98;100.00
28354;BME280;15603;50.878;8.036;2023-04-02T07:41:51;144681.25;;;6.00;100.00
28354;BME280;15603;50.878;8.036;2023-04-02T07:44:18;144610.97;;;5.70;100.00
28354;BME280;15603;50.878;8.036;2023-04-02T07:46:45;144704.25;;;6.09;100.00
28354;BME280;15603;50.878;8.036;2023-04-02T07:49:13;144621.84;;;5.75;100.00
28354;BME280;15603;50.878;8.036;2023-04-02T07:51:40;144684.88;;;6.01;100.00
28354;BME280;15603;50.878;8.036;2023-04-02T07:54:07;144751.53;;;6.29;100.00
28354;BME280;15603;50.878;8.036;2023-04-02T07:56:37;144597.63;;;5.64;100.00
28354;BME280;15603;50.878;8.036;2023-04-02T07:59:06;144633.97;;;5.80;100.00
28354;BME280;15603;50.878;8.036;2023-04-02T08:01:34;144574.63;;;5.55;100.00
28354;BME280;15603;50.878;8.036;2023-04-02T08:04:03;144743.03;;;6.26;100.00
28354;BME280;15603;50.878;8.036;2023-04-02T08:06:31;144671.56;;;5.96;100.00
28354;BME280;15603;50.878;8.036;2023-04-02T08:08:58;144627.88;;;5.77;100.00
28354;BME280;15603;50.878;8.036;2023-04-02T08:11:25;144752.72;;;6.30;100.00
28354;BME280;15603;50.878;8.036;2023-04-02T08:13:52;144598.84;;;5.65;100.00
28354;BME280;15603;50.878;8.036;2023-04-02T08:16:20;144815.75;;;6.57;100.00
28354;BME280;15603;50.878;8.036;2023-04-02T08:18:47;144849.66;;;6.71;100.00
28354;BME280;15603;50.878;8.036;2023-04-02T08:21:14;144798.78;;;6.49;100.00
28354;BME280;15603;50.878;8.036;2023-04-02T08:23:42;144602.47;;;5.66;100.00
28354;BME280;15603;50.878;8.036;2023-04-02T08:26:15;144791.47;;;6.46;100.00
28354;BME280;15603;50.878;8.036;2023-04-02T08:28:43;144824.25;;;6.60;100.00
28354;BME280;15603;50.878;8.036;2023-04-02T08:31:10;144769.72;;;6.37;100.00
28354;BME280;15603;50.878;8.036;2023-04-02T08:33:38;144750.28;;;6.29;100.00
28354;BME280;15603;50.878;8.036;2023-04-02T08:36:06;144798.78;;;6.49;100.00
28354;BME280;15603;50.878;8.036;2023-04-02T08:38:33;144784.25;;;6.43;100.00
28354;BME280;15603;50.878;8.036;2023-04-02T08:41:01;144836.34;;;6.65;100.00
28354;BME280;15603;50.878;8.036;2023-04-02T08:48:39;144768.47;;;6.37;100.00
28354;BME280;15603;50.878;8.036;2023-04-02T08:51:20;144687.28;;;6.02;100.00
28354;BME280;15603;50.878;8.036;2023-04-02T08:53:49;144675.19;;;5.97;100.00
28354;BME280;15603;50.878;8.036;2023-04-02T08:56:28;144721.22;;;6.17;100.00
28354;BME280;15603;50.878;8.036;2023-04-02T08:59:32;144750.28;;;6.29;100.00
28354;BME280;15603;50.878;8.036;2023-04-02T09:04:37;144698.22;;;6.07;100.00
28354;BME280;15603;50.878;8.036;2023-04-02T09:07:11;144602.47;;;5.66;100.00
28354;BME280;15603;50.878;8.036;2023-04-02T09:09:39;144675.19;;;5.97;100.00
28354;BME280;15603;50.878;8.036;2023-04-02T09:12:20;144340.97;;;4.56;100.00
28354;BME280;15603;50.878;8.036;2023-04-02T09:15:21;144169.16;;;3.83;100.00
28354;BME280;15603;50.878;8.036;2023-04-02T09:18:12;144437.81;;;4.97;100.00
28354;BME280;15603;50.878;8.036;2023-04-02T09:20:43;144584.31;;;5.59;100.00
28354;BME280;15603;50.878;8.036;2023-04-02T09:23:19;144537.06;;;5.39;100.00
28354;BME280;15603;50.878;8.036;2023-04-02T09:25:50;144568.53;;;5.52;100.00
28354;BME280;15603;50.878;8.036;2023-04-02T09:28:30;144703.06;;;6.09;100.00
28354;BME280;15603;50.878;8.036;2023-04-02T09:31:15;144660.63;;;5.91;100.00
28354;BME280;15603;50.878;8.036;2023-04-02T09:33:51;144721.22;;;6.17;100.00
28354;BME280;15603;50.878;8.036;2023-04-02T09:36:35;144721.22;;;6.17;100.00
28354;BME280;15603;50.878;8.036;2023-04-02T09:39:05;144707.91;;;6.11;100.00
28354;BME280;15603;50.878;8.036;2023-04-02T09:41:34;144711.53;;;6.13;100.00
28354;BME280;15603;50.878;8.036;2023-04-02T09:44:19;144711.53;;;6.13;100.00
28354;BME280;15603;50.878;8.036;2023-04-02T09:46:53;144684.88;;;6.01;100.00
28354;BME280;15603;50.878;8.036;2023-04-02T09:49:33;144743.03;;;6.26;100.00
28354;BME280;15603;50.878;8.036;2023-04-02T09:54:37;144689.72;;;6.03;100.00
28354;BME280;15603;50.878;8.036;2023-04-02T09:57:20;144561.31;;;5.49;100.00
28354;BME280;15603;50.878;8.036;2023-04-02T10:03:02;144333.72;;;4.52;100.00
28354;BME280;15603;50.878;8.036;2023-04-02T10:05:35;144595.19;;;5.63;100.00
28354;BME280;15603;50.878;8.036;2023-04-02T10:08:17;144345.78;;;4.58;100.00
28354;BME280;15603;50.878;8.036;2023-04-02T10:10:49;144537.06;;;5.39;100.00
28354;BME280;15603;50.878;8.036;2023-04-02T10:13:36;144738.19;;;6.24;100.00
28354;BME280;15603;50.878;8.036;2023-04-02T10:18:58;144784.25;;;6.43;100.00
28354;BME280;15603;50.878;8.036;2023-04-02T10:21:31;144803.63;;;6.52;100.00
28354;BME280;15603;50.878;8.036;2023-04-02T10:23:59;144747.88;;;6.28;100.00
28354;BME280;15603;50.878;8.036;2023-04-02T10:32:13;144839.97;;;6.67;100.00
28354;BME280;15603;50.878;8.036;2023-04-02T10:34:48;144767.25;;;6.36;100.00
28354;BME280;15603;50.878;8.036;2023-04-02T10:43:40;144863.00;;;6.77;100.00
28354;BME280;15603;50.878;8.036;2023-04-02T10:49:15;144820.59;;;6.59;97.34
28354;BME280;15603;50.878;8.036;2023-04-02T10:51:52;144808.47;;;6.54;97.87
28354;BME280;15603;50.878;8.036;2023-04-02T10:56:59;144770.91;;;6.38;99.70
28354;BME280;15603;50.878;8.036;2023-04-02T10:59:29;144723.63;;;6.18;99.48
28354;BME280;15603;50.878;8.036;2023-04-02T11:02:01;144790.28;;;6.46;98.93
28354;BME280;15603;50.878;8.036;2023-04-02T11:04:43;144844.81;;;6.69;98.38
28354;BME280;15603;50.878;8.036;2023-04-02T11:07:17;144813.31;;;6.56;98.24
28354;BME280;15603;50.878;8.036;2023-04-02T11:09:49;144855.75;;;6.74;99.39
28354;BME280;15603;50.878;8.036;2023-04-02T11:12:27;144871.50;;;6.80;97.07
28354;BME280;15603;50.878;8.036;2023-04-02T11:14:58;144841.19;;;6.67;95.98
28354;BME280;15603;50.878;8.036;2023-04-02T11:17:26;144837.56;;;6.66;96.30
28354;BME280;15603;50.878;8.036;2023-04-02T11:23:08;144912.72;;;6.98;96.51
28354;BME280;15603;50.878;8.036;2023-04-02T11:25:35;144958.78;;;7.17;94.76
28354;BME280;15603;50.878;8.036;2023-04-02T11:28:28;144983.06;;;7.27;95.04
28354;BME280;15603;50.878;8.036;2023-04-02T11:30:56;145014.53;;;7.41;94.80
28354;BME280;15603;50.878;8.036;2023-04-02T11:39:50;145075.22;;;7.66;92.26
28354;BME280;15603;50.878;8.036;2023-04-02T11:42:24;145013.34;;;7.40;91.25
28354;BME280;15603;50.878;8.036;2023-04-02T11:44:53;145072.75;;;7.65;91.08
28354;BME280;15603;50.878;8.036;2023-04-02T11:47:22;145087.31;;;7.72;96.18
28354;BME280;15603;50.878;8.036;2023-04-02T11:52:23;145099.47;;;7.77;93.82
28354;BME280;15603;50.878;8.036;2023-04-02T11:58:00;145208.66;;;8.23;90.02
28354;BME280;15603;50.878;8.036;2023-04-02T12:09:23;145089.75;;;7.73;92.42
28354;BME280;15603;50.878;8.036;2023-04-02T12:11:58;145032.72;;;7.48;92.47
28354;BME280;15603;50.878;8.036;2023-04-02T12:17:14;145067.91;;;7.63;89.09
28354;BME280;15603;50.878;8.036;2023-04-02T12:19:54;145152.84;;;7.99;90.43
28354;BME280;15603;50.878;8.036;2023-04-02T12:22:24;145140.69;;;7.94;88.72
28354;BME280;15603;50.878;8.036;2023-04-02T12:24:57;145135.84;;;7.92;89.72
28354;BME280;15603;50.878;8.036;2023-04-02T12:27:27;145112.81;;;7.82;91.93
28354;BME280;15603;50.878;8.036;2023-04-02T12:30:16;145191.66;;;8.16;89.96
28354;BME280;15603;50.878;8.036;2023-04-02T12:32:44;145064.28;;;7.62;88.11
28354;BME280;15603;50.878;8.036;2023-04-02T12:35:27;145162.53;;;8.03;89.87
28354;BME280;15603;50.878;8.036;2023-04-02T12:37:56;145133.44;;;7.91;88.71
28354;BME280;15603;50.878;8.036;2023-04-02T12:40:24;145211.09;;;8.24;86.65
28354;BME280;15603;50.878;8.036;2023-04-02T12:42:52;145206.25;;;8.22;86.69
28354;BME280;15603;50.878;8.036;2023-04-02T12:45:24;145242.66;;;8.37;89.39
28354;BME280;15603;50.878;8.036;2023-04-02T12:47:56;145263.31;;;8.46;87.74
28354;BME280;15603;50.878;8.036;2023-04-02T12:50:24;145202.59;;;8.20;89.12
28354;BME280;15603;50.878;8.036;2023-04-02T12:52:52;145145.56;;;7.96;87.06
28354;BME280;15603;50.878;8.036;2023-04-02T12:55:23;145114.00;;;7.83;86.41
28354;BME280;15603;50.878;8.036;2023-04-02T12:57:58;145165.00;;;8.04;87.45
28354;BME280;15603;50.878;8.036;2023-04-02T13:00:30;145145.56;;;7.96;88.93
28354;BME280;15603;50.878;8.036;2023-04-02T13:03:01;145169.84;;;8.06;85.35
28354;BME280;15603;50.878;8.036;2023-04-02T13:05:48;145155.25;;;8.00;87.94
28354;BME280;15603;50.878;8.036;2023-04-02T13:08:21;145089.75;;;7.73;88.80
28354;BME280;15603;50.878;8.036;2023-04-02T13:10:55;145186.78;;;8.14;87.27
28354;BME280;15603;50.878;8.036;2023-04-02T13:13:27;145214.69;;;8.25;86.46
28354;BME280;15603;50.878;8.036;2023-04-02T13:16:26;145082.47;;;7.70;88.57
28354;BME280;15603;50.878;8.036;2023-04-02T13:19:08;145184.41;;;8.13;83.60
28354;BME280;15603;50.878;8.036;2023-04-02T13:21:36;145115.25;;;7.83;82.34
28354;BME280;15603;50.878;8.036;2023-04-02T13:24:03;145090.97;;;7.73;84.64
28354;BME280;15603;50.878;8.036;2023-04-02T13:26:30;145060.66;;;7.60;84.86
28354;BME280;15603;50.878;8.036;2023-04-02T13:29:00;145063.06;;;7.61;84.55
28354;BME280;15603;50.878;8.036;2023-04-02T13:31:29;145101.91;;;7.78;85.00
28354;BME280;15603;50.878;8.036;2023-04-02T13:33:57;144989.09;;;7.30;83.79
28354;BME280;15603;50.878;8.036;2023-04-02T13:36:25;145036.38;;;7.50;87.95
28354;BME280;15603;50.878;8.036;2023-04-02T13:38:55;145084.91;;;7.71;87.40
28354;BME280;15603;50.878;8.036;2023-04-02T13:41:27;145038.81;;;7.51;87.71
28354;BME280;15603;50.878;8.036;2023-04-02T13:44:01;144963.63;;;7.19;86.70
28354;BME280;15603;50.878;8.036;2023-04-02T13:46:31;145030.34;;;7.47;86.97
28354;BME280;15603;50.878;8.036;2023-04-02T13:48:59;144985.47;;;7.28;92.07
28354;BME280;15603;50.878;8.036;2023-04-02T13:51:35;144987.91;;;7.30;87.31
28354;BME280;15603;50.878;8.036;2023-04-02T13:54:13;144963.63;;;7.19;86.26
28354;BME280;15603;50.878;8.036;2023-04-02T13:56:41;144959.97;;;7.18;87.17
28354;BME280;15603;50.878;8.036;2023-04-02T13:59:09;144928.50;;;7.04;86.64
28354;BME280;15603;50.878;8.036;2023-04-02T14:01:39;144881.19;;;6.84;86.62
28354;BME280;15603;50.878;8.036;2023-04-02T14:04:08;144905.41;;;6.95;88.73
28354;BME280;15603;50.878;8.036;2023-04-02T14:07:09;145017.00;;;7.42;86.32
28354;BME280;15603;50.878;8.036;2023-04-02T14:12:24;145033.97;;;7.49;82.80
28354;BME280;15603;50.878;8.036;2023-04-02T14:15:07;145015.78;;;7.41;83.62
28354;BME280;15603;50.878;8.036;2023-04-02T14:18:01;144961.22;;;7.18;82.52
28354;BME280;15603;50.878;8.036;2023-04-02T14:26:19;144815.75;;;6.57;86.00
28354;BME280;15603;50.878;8.036;2023-04-02T14:29:24;144853.31;;;6.73;87.60
28354;BME280;15603;50.878;8.036;2023-04-02T14:32:08;144867.84;;;6.79;86.51
28354;BME280;15603;50.878;8.036;2023-04-02T14:40:31;144823.00;;;6.60;86.43
28354;BME280;15603;50.878;8.036;2023-04-02T14:51:48;144727.28;;;6.19;83.43
28354;BME280;15603;50.878;8.036;2023-04-02T14:54:23;144732.13;;;6.21;84.26
28354;BME280;15603;50.878;8.036;2023-04-02T14:56:57;144756.38;;;6.32;85.36
28354;BME280;15603;50.878;8.036;2023-04-02T14:59:33;144757.56;;;6.32;82.71
28354;BME280;15603;50.878;8.036;2023-04-02T15:02:13;144804.81;;;6.52;84.29
28354;BME280;15603;50.878;8.036;2023-04-02T15:04:55;144743.03;;;6.26;84.93
28354;BME280;15603;50.878;8.036;2023-04-02T15:07:36;144750.28;;;6.29;82.58
28354;BME280;15603;50.878;8.036;2023-04-02T15:10:13;144759.97;;;6.33;83.85
28354;BME280;15603;50.878;8.036;2023-04-02T15:12:44;144677.59;;;5.98;84.20
28354;BME280;15603;50.878;8.036;2023-04-02T15:15:32;144767.25;;;6.36;83.25
28354;BME280;15603;50.878;8.036;2023-04-02T15:18:12;144791.47;;;6.46;83.32
28354;BME280;15603;50.878;8.036;2023-04-02T15:20:52;144797.56;;;6.49;81.50
28354;BME280;15603;50.878;8.036;2023-04-02T15:26:22;144752.72;;;6.30;85.01
28354;BME280;15603;50.878;8.036;2023-04-02T15:31:50;144813.31;;;6.56;82.13
28354;BME280;15603;50.878;8.036;2023-04-02T15:34:38;144743.03;;;6.26;78.52
28354;BME280;15603;50.878;8.036;2023-04-02T15:37:18;144784.25;;;6.43;81.07
28354;BME280;15603;50.878;8.036;2023-04-02T15:39:58;144798.78;;;6.49;84.11
28354;BME280;15603;50.878;8.036;2023-04-02T15:42:32;144846.03;;;6.69;83.66
28354;BME280;15603;50.878;8.036;2023-04-02T15:50:41;144795.13;;;6.48;82.24
28354;BME280;15603;50.878;8.036;2023-04-02T15:53:27;144778.16;;;6.41;82.48
28354;BME280;15603;50.878;8.036;2023-04-02T16:04:18;144803.63;;;6.52;75.46
28354;BME280;15603;50.878;8.036;2023-04-02T16:12:38;144759.97;;;6.33;78.75
28354;BME280;15603;50.878;8.036;2023-04-02T16:15:23;144815.75;;;6.57;77.43
28354;BME280;15603;50.878;8.036;2023-04-02T16:18:07;144755.13;;;6.31;76.90